FDX125 KIAD-KBOS
Flight info
| Callsign | FDX125 |
|---|---|
| Flight time | 1h 10m |
| Altitude | 37000 |
| Route | JCOBY4 SWANN BROSS Q419 JFK ROBUC3 |
| Aircraft | B737/M-SDE2E3FGHIRWXY/LB1 |
Departure
| Time | 2026-05-04 13:21 |
|---|---|
| Airport | Washington Dulles International Airport (KIAD) |
Arrival
| Time | 2026-05-04 14:31 |
|---|---|
| Airport | Boston Logan International Airport (KBOS) |
| Time | Latitude | Longitude | Altitude | Speed | Heading |
|---|---|---|---|---|---|
| 2026-05-04 12:38 | 38.94490 | -77.45371 | 300 ft | 0 kts | 39° |
| 2026-05-04 13:09 | 38.94489 | -77.45371 | 300 ft | 1 kts | 39° |
| 2026-05-04 13:09 | 38.94477 | -77.45383 | 301 ft | 3 kts | 26° |
| 2026-05-04 13:10 | 38.94458 | -77.45391 | 300 ft | 3 kts | 5° |
| 2026-05-04 13:10 | 38.94439 | -77.45390 | 301 ft | 3 kts | 339° |
| 2026-05-04 13:10 | 38.94424 | -77.45379 | 301 ft | 3 kts | 299° |
| 2026-05-04 13:10 | 38.94420 | -77.45365 | 299 ft | 1 kts | 271° |
| 2026-05-04 13:11 | 38.94420 | -77.45361 | 299 ft | 0 kts | 271° |
| 2026-05-04 13:14 | 38.94420 | -77.45370 | 301 ft | 2 kts | 271° |
| 2026-05-04 13:14 | 38.94420 | -77.45401 | 302 ft | 5 kts | 271° |
| 2026-05-04 13:14 | 38.94422 | -77.45454 | 301 ft | 3 kts | 271° |
| 2026-05-04 13:15 | 38.94422 | -77.45495 | 303 ft | 6 kts | 271° |
| 2026-05-04 13:15 | 38.94421 | -77.45562 | 302 ft | 9 kts | 261° |
| 2026-05-04 13:15 | 38.94372 | -77.45610 | 303 ft | 10 kts | 183° |
| 2026-05-04 13:15 | 38.94292 | -77.45611 | 303 ft | 13 kts | 180° |
| 2026-05-04 13:16 | 38.94196 | -77.45611 | 303 ft | 15 kts | 181° |
| 2026-05-04 13:16 | 38.94084 | -77.45615 | 303 ft | 17 kts | 180° |
| 2026-05-04 13:16 | 38.93959 | -77.45616 | 303 ft | 19 kts | 180° |
| 2026-05-04 13:16 | 38.93810 | -77.45618 | 298 ft | 24 kts | 180° |
| 2026-05-04 13:17 | 38.93691 | -77.45595 | 294 ft | 12 kts | 131° |
| 2026-05-04 13:17 | 38.93630 | -77.45501 | 292 ft | 14 kts | 132° |
| 2026-05-04 13:17 | 38.93574 | -77.45500 | 287 ft | 2 kts | 202° |
| 2026-05-04 13:17 | 38.93533 | -77.45521 | 284 ft | 10 kts | 201° |
| 2026-05-04 13:18 | 38.93447 | -77.45563 | 280 ft | 15 kts | 202° |
| 2026-05-04 13:18 | 38.93375 | -77.45635 | 281 ft | 14 kts | 270° |
| 2026-05-04 13:18 | 38.93390 | -77.45694 | 285 ft | 0 kts | 290° |
| 2026-05-04 13:20 | 38.93411 | -77.45764 | 282 ft | 31 kts | 291° |
| 2026-05-04 13:20 | 38.93586 | -77.46358 | 292 ft | 108 kts | 290° |
| 2026-05-04 13:20 | 38.93900 | -77.47527 | 317 ft | 164 kts | 284° |
| 2026-05-04 13:20 | 38.94344 | -77.49017 | 756 ft | 188 kts | 294° |
| 2026-05-04 13:21 | 38.94990 | -77.50437 | 1710 ft | 185 kts | 298° |
| 2026-05-04 13:21 | 38.95726 | -77.51873 | 1852 ft | 202 kts | 300° |
| 2026-05-04 13:21 | 38.96531 | -77.53434 | 1950 ft | 219 kts | 300° |
| 2026-05-04 13:21 | 38.97463 | -77.55081 | 2204 ft | 231 kts | 314° |
| 2026-05-04 13:22 | 38.98831 | -77.56040 | 3132 ft | 215 kts | 336° |
| 2026-05-04 13:22 | 39.00172 | -77.56676 | 4103 ft | 207 kts | 335° |
| 2026-05-04 13:22 | 39.01593 | -77.57371 | 4665 ft | 234 kts | 335° |
| 2026-05-04 13:22 | 39.03207 | -77.58179 | 5193 ft | 258 kts | 335° |
| 2026-05-04 13:23 | 39.04900 | -77.59032 | 6266 ft | 262 kts | 335° |
| 2026-05-04 13:23 | 39.06597 | -77.59876 | 7231 ft | 260 kts | 335° |
| 2026-05-04 13:23 | 39.08306 | -77.60713 | 7832 ft | 265 kts | 335° |
| 2026-05-04 13:23 | 39.10036 | -77.61555 | 8852 ft | 268 kts | 335° |
| 2026-05-04 13:24 | 39.11798 | -77.62407 | 9853 ft | 271 kts | 335° |
| 2026-05-04 13:24 | 39.13588 | -77.63266 | 10623 ft | 283 kts | 335° |
| 2026-05-04 13:24 | 39.15568 | -77.64067 | 10848 ft | 317 kts | 349° |
| 2026-05-04 13:25 | 39.19751 | -77.61769 | 12413 ft | 357 kts | 47° |
| 2026-05-04 13:25 | 39.20907 | -77.58891 | 13344 ft | 370 kts | 73° |
| 2026-05-04 13:25 | 39.21022 | -77.55550 | 14195 ft | 382 kts | 99° |
| 2026-05-04 13:25 | 39.20036 | -77.52366 | 15018 ft | 387 kts | 124° |
| 2026-05-04 13:26 | 39.18663 | -77.49373 | 15884 ft | 392 kts | 114° |
| 2026-05-04 13:26 | 39.17795 | -77.46027 | 16720 ft | 397 kts | 103° |
| 2026-05-04 13:26 | 39.17245 | -77.42519 | 17564 ft | 402 kts | 98° |
| 2026-05-04 13:26 | 39.16832 | -77.38935 | 18385 ft | 407 kts | 97° |
| 2026-05-04 13:27 | 39.16419 | -77.35298 | 19121 ft | 412 kts | 97° |
| 2026-05-04 13:27 | 39.16025 | -77.31630 | 19880 ft | 416 kts | 96° |
| 2026-05-04 13:27 | 39.15503 | -77.27944 | 20632 ft | 421 kts | 102° |
| 2026-05-04 13:27 | 39.14836 | -77.24263 | 21366 ft | 425 kts | 102° |
| 2026-05-04 13:28 | 39.14182 | -77.20532 | 22097 ft | 429 kts | 101° |
| 2026-05-04 13:28 | 39.13539 | -77.16761 | 22818 ft | 433 kts | 101° |
| 2026-05-04 13:28 | 39.12924 | -77.12951 | 23510 ft | 437 kts | 100° |
| 2026-05-04 13:28 | 39.12319 | -77.09088 | 24099 ft | 442 kts | 100° |
| 2026-05-04 13:29 | 39.11707 | -77.05196 | 24653 ft | 446 kts | 100° |
| 2026-05-04 13:29 | 39.11083 | -77.01263 | 25201 ft | 450 kts | 99° |
| 2026-05-04 13:29 | 39.10678 | -76.97256 | 25743 ft | 452 kts | 90° |
| 2026-05-04 13:29 | 39.10712 | -76.93205 | 26274 ft | 454 kts | 85° |
| 2026-05-04 13:30 | 39.10847 | -76.89120 | 26795 ft | 458 kts | 84° |
| 2026-05-04 13:30 | 39.10999 | -76.85001 | 27315 ft | 463 kts | 85° |
| 2026-05-04 13:30 | 39.11140 | -76.80852 | 27794 ft | 467 kts | 85° |
| 2026-05-04 13:30 | 39.11265 | -76.76651 | 28275 ft | 471 kts | 85° |
| 2026-05-04 13:31 | 39.11374 | -76.72413 | 28757 ft | 475 kts | 86° |
| 2026-05-04 13:31 | 39.11476 | -76.68149 | 29197 ft | 479 kts | 86° |
| 2026-05-04 13:31 | 39.11573 | -76.63899 | 29642 ft | 482 kts | 86° |
| 2026-05-04 13:31 | 39.11674 | -76.59505 | 30077 ft | 486 kts | 86° |
| 2026-05-04 13:32 | 39.11774 | -76.55140 | 30423 ft | 490 kts | 86° |
| 2026-05-04 13:32 | 39.11924 | -76.50807 | 30750 ft | 492 kts | 82° |
| 2026-05-04 13:32 | 39.12333 | -76.46423 | 31072 ft | 494 kts | 79° |
| 2026-05-04 13:32 | 39.12864 | -76.42038 | 31380 ft | 498 kts | 78° |
| 2026-05-04 13:33 | 39.13421 | -76.37631 | 31724 ft | 499 kts | 78° |
| 2026-05-04 13:33 | 39.13957 | -76.33209 | 32159 ft | 499 kts | 79° |
| 2026-05-04 13:33 | 39.14461 | -76.28790 | 32615 ft | 498 kts | 79° |
| 2026-05-04 13:33 | 39.14946 | -76.24374 | 33016 ft | 499 kts | 79° |
| 2026-05-04 13:34 | 39.15434 | -76.19944 | 33377 ft | 500 kts | 79° |
| 2026-05-04 13:34 | 39.15942 | -76.15518 | 33740 ft | 500 kts | 79° |
| 2026-05-04 13:34 | 39.16460 | -76.11088 | 34085 ft | 501 kts | 79° |
| 2026-05-04 13:34 | 39.16979 | -76.06646 | 34347 ft | 502 kts | 79° |
| 2026-05-04 13:35 | 39.17495 | -76.02193 | 34654 ft | 502 kts | 79° |
| 2026-05-04 13:35 | 39.18600 | -75.93346 | 35380 ft | 497 kts | 72° |
| 2026-05-04 13:35 | 39.19834 | -75.89210 | 35668 ft | 492 kts | 58° |
| 2026-05-04 13:36 | 39.21668 | -75.85529 | 35924 ft | 486 kts | 46° |
| 2026-05-04 13:36 | 39.24005 | -75.82427 | 36158 ft | 479 kts | 35° |
| 2026-05-04 13:36 | 39.26563 | -75.79677 | 36422 ft | 479 kts | 34° |
| 2026-05-04 13:36 | 39.29146 | -75.76957 | 36639 ft | 480 kts | 34° |
| 2026-05-04 13:37 | 39.31735 | -75.74210 | 36805 ft | 483 kts | 35° |
| 2026-05-04 13:37 | 39.34319 | -75.71420 | 37045 ft | 485 kts | 36° |
| 2026-05-04 13:37 | 39.36906 | -75.68591 | 37063 ft | 489 kts | 36° |
| 2026-05-04 13:38 | 39.42061 | -75.62900 | 37044 ft | 483 kts | 36° |
| 2026-05-04 13:38 | 39.47143 | -75.57302 | 37048 ft | 479 kts | 36° |
| 2026-05-04 13:39 | 39.52220 | -75.51726 | 37046 ft | 478 kts | 36° |
| 2026-05-04 13:39 | 39.57292 | -75.46139 | 37065 ft | 479 kts | 36° |
| 2026-05-04 13:40 | 39.62362 | -75.40542 | 37038 ft | 479 kts | 36° |
| 2026-05-04 13:40 | 39.67445 | -75.34925 | 37047 ft | 480 kts | 36° |
| 2026-05-04 13:41 | 39.72526 | -75.29299 | 37045 ft | 481 kts | 36° |
| 2026-05-04 13:41 | 39.77623 | -75.23645 | 37047 ft | 482 kts | 36° |
| 2026-05-04 13:42 | 39.83835 | -75.15221 | 37045 ft | 488 kts | 46° |
| 2026-05-04 13:42 | 39.88212 | -75.08458 | 37045 ft | 488 kts | 46° |
| 2026-05-04 13:43 | 39.92654 | -75.01756 | 37033 ft | 489 kts | 45° |
| 2026-05-04 13:43 | 39.97107 | -74.95044 | 37049 ft | 491 kts | 48° |
| 2026-05-04 13:44 | 40.01019 | -74.87711 | 37052 ft | 493 kts | 54° |
| 2026-05-04 13:44 | 40.04723 | -74.80174 | 37043 ft | 493 kts | 54° |
| 2026-05-04 13:45 | 40.08472 | -74.72676 | 37027 ft | 493 kts | 53° |
| 2026-05-04 13:45 | 40.12255 | -74.65219 | 37041 ft | 492 kts | 53° |
| 2026-05-04 13:46 | 40.16034 | -74.57761 | 37021 ft | 492 kts | 53° |
| 2026-05-04 13:46 | 40.19894 | -74.50399 | 37016 ft | 488 kts | 47° |
| 2026-05-04 13:47 | 40.24771 | -74.44383 | 37038 ft | 480 kts | 34° |
| 2026-05-04 13:47 | 40.30001 | -74.38962 | 37053 ft | 479 kts | 34° |
| 2026-05-04 13:48 | 40.35208 | -74.33489 | 37020 ft | 480 kts | 34° |
| 2026-05-04 13:48 | 40.40342 | -74.27995 | 37026 ft | 480 kts | 35° |
| 2026-05-04 13:49 | 40.45509 | -74.22439 | 37016 ft | 480 kts | 35° |
| 2026-05-04 13:49 | 40.50685 | -74.16871 | 37017 ft | 481 kts | 35° |
| 2026-05-04 13:50 | 40.53120 | -74.13831 | 37009 ft | 486 kts | 46° |
| 2026-05-04 13:50 | 40.55124 | -74.10226 | 37025 ft | 490 kts | 56° |
| 2026-05-04 13:50 | 40.56667 | -74.06220 | 37032 ft | 494 kts | 68° |
| 2026-05-04 13:50 | 40.57730 | -74.01912 | 37059 ft | 495 kts | 72° |
| 2026-05-04 13:51 | 40.59607 | -73.93187 | 37036 ft | 496 kts | 73° |
| 2026-05-04 13:51 | 40.61582 | -73.84492 | 37036 ft | 496 kts | 72° |
| 2026-05-04 13:52 | 40.64306 | -73.76202 | 37053 ft | 492 kts | 56° |
| 2026-05-04 13:52 | 40.66262 | -73.72530 | 37036 ft | 489 kts | 46° |
| 2026-05-04 13:53 | 40.70830 | -73.65920 | 37033 ft | 487 kts | 43° |
| 2026-05-04 13:53 | 40.75438 | -73.59349 | 37020 ft | 488 kts | 44° |
| 2026-05-04 13:54 | 40.79947 | -73.52759 | 36937 ft | 474 kts | 44° |
| 2026-05-04 13:54 | 40.82129 | -73.49543 | 36508 ft | 469 kts | 44° |
| 2026-05-04 13:54 | 40.86521 | -73.43086 | 34939 ft | 477 kts | 44° |
| 2026-05-04 13:55 | 40.88715 | -73.39854 | 34187 ft | 480 kts | 44° |
| 2026-05-04 13:55 | 40.93170 | -73.33271 | 32536 ft | 480 kts | 44° |
| 2026-05-04 13:55 | 40.95392 | -73.29982 | 31794 ft | 478 kts | 44° |
| 2026-05-04 13:56 | 40.97600 | -73.26710 | 31183 ft | 474 kts | 44° |
| 2026-05-04 13:56 | 40.99775 | -73.23482 | 30682 ft | 467 kts | 44° |
| 2026-05-04 13:56 | 41.04033 | -73.17152 | 29588 ft | 455 kts | 44° |
| 2026-05-04 13:57 | 41.06124 | -73.14039 | 28918 ft | 450 kts | 44° |
| 2026-05-04 13:57 | 41.08195 | -73.10954 | 28226 ft | 446 kts | 44° |
| 2026-05-04 13:58 | 41.14282 | -73.01869 | 26362 ft | 432 kts | 44° |
| 2026-05-04 13:58 | 41.18231 | -72.95960 | 25162 ft | 425 kts | 44° |
| 2026-05-04 13:58 | 41.20176 | -72.93027 | 24564 ft | 422 kts | 46° |
| 2026-05-04 13:59 | 41.21882 | -72.89856 | 23969 ft | 424 kts | 57° |
| 2026-05-04 13:59 | 41.23255 | -72.86398 | 23403 ft | 421 kts | 60° |
| 2026-05-04 13:59 | 41.25781 | -72.79617 | 22980 ft | 394 kts | 60° |
| 2026-05-04 14:00 | 41.26968 | -72.76422 | 22967 ft | 377 kts | 60° |
| 2026-05-04 14:00 | 41.29223 | -72.70425 | 22623 ft | 356 kts | 59° |
| 2026-05-04 14:00 | 41.30342 | -72.67486 | 22399 ft | 354 kts | 59° |
| 2026-05-04 14:01 | 41.31486 | -72.64492 | 22269 ft | 375 kts | 59° |
| 2026-05-04 14:01 | 41.32708 | -72.61300 | 22158 ft | 401 kts | 60° |
| 2026-05-04 14:01 | 41.35299 | -72.54488 | 21914 ft | 416 kts | 60° |
| 2026-05-04 14:02 | 41.36596 | -72.51055 | 21810 ft | 415 kts | 60° |
| 2026-05-04 14:02 | 41.37892 | -72.47621 | 21709 ft | 414 kts | 60° |
| 2026-05-04 14:02 | 41.39184 | -72.44197 | 21609 ft | 414 kts | 60° |
| 2026-05-04 14:02 | 41.40477 | -72.40772 | 21522 ft | 413 kts | 60° |
| 2026-05-04 14:03 | 41.41766 | -72.37353 | 21423 ft | 413 kts | 60° |
| 2026-05-04 14:03 | 41.43056 | -72.33930 | 21323 ft | 413 kts | 60° |
| 2026-05-04 14:03 | 41.44342 | -72.30513 | 21234 ft | 412 kts | 60° |
| 2026-05-04 14:03 | 41.45626 | -72.27099 | 21142 ft | 412 kts | 60° |
| 2026-05-04 14:04 | 41.48190 | -72.20265 | 20907 ft | 413 kts | 60° |
| 2026-05-04 14:04 | 41.49463 | -72.16815 | 20590 ft | 415 kts | 61° |
| 2026-05-04 14:04 | 41.50703 | -72.13417 | 20308 ft | 410 kts | 61° |
| 2026-05-04 14:05 | 41.53172 | -72.06640 | 19724 ft | 403 kts | 61° |
| 2026-05-04 14:05 | 41.54398 | -72.03281 | 19441 ft | 403 kts | 61° |
| 2026-05-04 14:05 | 41.55621 | -71.99916 | 19162 ft | 403 kts | 62° |
| 2026-05-04 14:06 | 41.56725 | -71.96475 | 18892 ft | 403 kts | 66° |
| 2026-05-04 14:06 | 41.57744 | -71.92991 | 18629 ft | 402 kts | 66° |
| 2026-05-04 14:06 | 41.58755 | -71.89523 | 18357 ft | 399 kts | 66° |
| 2026-05-04 14:06 | 41.59765 | -71.86101 | 17919 ft | 393 kts | 66° |
| 2026-05-04 14:07 | 41.60767 | -71.82714 | 17299 ft | 391 kts | 66° |
| 2026-05-04 14:07 | 41.61767 | -71.79332 | 16659 ft | 390 kts | 66° |
| 2026-05-04 14:07 | 41.62758 | -71.75973 | 16077 ft | 387 kts | 66° |
| 2026-05-04 14:07 | 41.63742 | -71.72636 | 15536 ft | 384 kts | 66° |
| 2026-05-04 14:08 | 41.64709 | -71.69350 | 15261 ft | 377 kts | 66° |
| 2026-05-04 14:08 | 41.65664 | -71.66105 | 15033 ft | 373 kts | 66° |
| 2026-05-04 14:08 | 41.66617 | -71.62864 | 14818 ft | 375 kts | 67° |
| 2026-05-04 14:08 | 41.67558 | -71.59658 | 14606 ft | 365 kts | 67° |
| 2026-05-04 14:09 | 41.69355 | -71.53512 | 14207 ft | 346 kts | 66° |
| 2026-05-04 14:09 | 41.70229 | -71.50527 | 14034 ft | 344 kts | 67° |
| 2026-05-04 14:10 | 41.71981 | -71.44526 | 13686 ft | 349 kts | 67° |
| 2026-05-04 14:10 | 41.72959 | -71.41553 | 13475 ft | 349 kts | 59° |
| 2026-05-04 14:10 | 41.74161 | -71.38739 | 13281 ft | 347 kts | 56° |
| 2026-05-04 14:10 | 41.75408 | -71.35971 | 13088 ft | 346 kts | 56° |
| 2026-05-04 14:11 | 41.76634 | -71.33193 | 12908 ft | 346 kts | 57° |
| 2026-05-04 14:11 | 41.79026 | -71.27626 | 12539 ft | 344 kts | 58° |
| 2026-05-04 14:11 | 41.80213 | -71.24837 | 12340 ft | 344 kts | 58° |
| 2026-05-04 14:12 | 41.81397 | -71.22055 | 12157 ft | 343 kts | 58° |
| 2026-05-04 14:12 | 41.82576 | -71.19281 | 11971 ft | 342 kts | 58° |
| 2026-05-04 14:12 | 41.84921 | -71.13760 | 11611 ft | 337 kts | 58° |
| 2026-05-04 14:13 | 41.86052 | -71.11100 | 11440 ft | 327 kts | 57° |
| 2026-05-04 14:13 | 41.87190 | -71.08461 | 11260 ft | 321 kts | 57° |
| 2026-05-04 14:13 | 41.88311 | -71.05875 | 11095 ft | 320 kts | 57° |
| 2026-05-04 14:13 | 41.89434 | -71.03284 | 10930 ft | 322 kts | 57° |
| 2026-05-04 14:14 | 41.90549 | -71.00706 | 10771 ft | 325 kts | 57° |
| 2026-05-04 14:14 | 41.92819 | -70.95444 | 10414 ft | 326 kts | 58° |
| 2026-05-04 14:14 | 41.93953 | -70.92810 | 10247 ft | 325 kts | 58° |
| 2026-05-04 14:15 | 41.96171 | -70.87646 | 9872 ft | 310 kts | 58° |
| 2026-05-04 14:15 | 41.98287 | -70.82714 | 9534 ft | 303 kts | 58° |
| 2026-05-04 14:16 | 42.00402 | -70.77781 | 9234 ft | 307 kts | 58° |
| 2026-05-04 14:16 | 42.01549 | -70.75350 | 9040 ft | 307 kts | 49° |
| 2026-05-04 14:17 | 42.04409 | -70.71127 | 8715 ft | 305 kts | 43° |
| 2026-05-04 14:17 | 42.05862 | -70.69038 | 8557 ft | 305 kts | 43° |
| 2026-05-04 14:17 | 42.08715 | -70.64810 | 8228 ft | 305 kts | 44° |
| 2026-05-04 14:18 | 42.10149 | -70.62723 | 8056 ft | 302 kts | 37° |
| 2026-05-04 14:18 | 42.13847 | -70.60680 | 7572 ft | 282 kts | 5° |
| 2026-05-04 14:19 | 42.17646 | -70.59668 | 7062 ft | 277 kts | 4° |
| 2026-05-04 14:19 | 42.19536 | -70.59164 | 6790 ft | 277 kts | 4° |
| 2026-05-04 14:19 | 42.21421 | -70.58653 | 6531 ft | 277 kts | 4° |
| 2026-05-04 14:19 | 42.23308 | -70.58135 | 6269 ft | 276 kts | 4° |
| 2026-05-04 14:20 | 42.25193 | -70.57612 | 5998 ft | 276 kts | 5° |
| 2026-05-04 14:20 | 42.27068 | -70.57089 | 5724 ft | 275 kts | 5° |
| 2026-05-04 14:20 | 42.28942 | -70.56565 | 5461 ft | 274 kts | 5° |
| 2026-05-04 14:21 | 42.32627 | -70.56117 | 4956 ft | 253 kts | 334° |
| 2026-05-04 14:21 | 42.34154 | -70.57112 | 4862 ft | 239 kts | 318° |
| 2026-05-04 14:21 | 42.35479 | -70.58448 | 4746 ft | 238 kts | 314° |
| 2026-05-04 14:21 | 42.36782 | -70.59854 | 4642 ft | 241 kts | 314° |
| 2026-05-04 14:22 | 42.38097 | -70.61277 | 4503 ft | 242 kts | 314° |
| 2026-05-04 14:22 | 42.39413 | -70.62690 | 4372 ft | 241 kts | 315° |
| 2026-05-04 14:22 | 42.40732 | -70.64095 | 4238 ft | 241 kts | 315° |
| 2026-05-04 14:22 | 42.42051 | -70.65493 | 4108 ft | 240 kts | 315° |
| 2026-05-04 14:23 | 42.45843 | -70.69493 | 3748 ft | 225 kts | 314° |
| 2026-05-04 14:23 | 42.47049 | -70.70765 | 3641 ft | 215 kts | 313° |
| 2026-05-04 14:24 | 42.47898 | -70.72277 | 3527 ft | 193 kts | 285° |
| 2026-05-04 14:24 | 42.48153 | -70.73996 | 3452 ft | 184 kts | 268° |
| 2026-05-04 14:24 | 42.47955 | -70.75695 | 3370 ft | 183 kts | 256° |
| 2026-05-04 14:24 | 42.47649 | -70.77375 | 3289 ft | 185 kts | 256° |
| 2026-05-04 14:25 | 42.47348 | -70.79021 | 3212 ft | 173 kts | 256° |
| 2026-05-04 14:25 | 42.46808 | -70.81966 | 3021 ft | 154 kts | 257° |
| 2026-05-04 14:25 | 42.46550 | -70.83380 | 2839 ft | 156 kts | 257° |
| 2026-05-04 14:26 | 42.46296 | -70.84785 | 2666 ft | 153 kts | 257° |
| 2026-05-04 14:26 | 42.46045 | -70.86179 | 2454 ft | 152 kts | 256° |
| 2026-05-04 14:26 | 42.45798 | -70.87542 | 2234 ft | 151 kts | 257° |
| 2026-05-04 14:26 | 42.45549 | -70.88925 | 2042 ft | 152 kts | 255° |
| 2026-05-04 14:27 | 42.45311 | -70.90317 | 1917 ft | 152 kts | 256° |
| 2026-05-04 14:27 | 42.45083 | -70.91704 | 1780 ft | 151 kts | 255° |
| 2026-05-04 14:27 | 42.44853 | -70.93093 | 1658 ft | 150 kts | 256° |
| 2026-05-04 14:27 | 42.44632 | -70.94425 | 1509 ft | 140 kts | 256° |
| 2026-05-04 14:28 | 42.44339 | -70.95661 | 1379 ft | 141 kts | 233° |
| 2026-05-04 14:28 | 42.43552 | -70.96412 | 1299 ft | 137 kts | 218° |
| 2026-05-04 14:28 | 42.42765 | -70.97170 | 1165 ft | 141 kts | 221° |
| 2026-05-04 14:28 | 42.42011 | -70.98018 | 949 ft | 143 kts | 207° |
| 2026-05-04 14:29 | 42.40266 | -70.98715 | 652 ft | 121 kts | 204° |
| 2026-05-04 14:29 | 42.38676 | -70.99409 | 333 ft | 111 kts | 207° |
| 2026-05-04 14:30 | 42.37953 | -70.99789 | 197 ft | 118 kts | 206° |
| 2026-05-04 14:30 | 42.37140 | -71.00192 | 58 ft | 124 kts | 205° |
| 2026-05-04 14:30 | 42.35861 | -71.00814 | 20 ft | 50 kts | 200° |
| 2026-05-04 14:31 | 42.35657 | -71.00914 | 22 ft | 22 kts | 199° |
| 2026-05-04 14:31 | 42.35392 | -71.01052 | 28 ft | 17 kts | 224° |
| 2026-05-04 14:32 | 42.35422 | -71.01254 | 28 ft | 12 kts | 288° |
| 2026-05-04 14:32 | 42.35453 | -71.01354 | 26 ft | 12 kts | 316° |
| 2026-05-04 14:32 | 42.35533 | -71.01341 | 27 ft | 13 kts | 19° |
| 2026-05-04 14:32 | 42.35623 | -71.01315 | 27 ft | 14 kts | 7° |
| 2026-05-04 14:33 | 42.35719 | -71.01276 | 27 ft | 16 kts | 20° |
| 2026-05-04 14:33 | 42.35824 | -71.01242 | 26 ft | 15 kts | 343° |
| 2026-05-04 14:33 | 42.35855 | -71.01347 | 27 ft | 13 kts | 277° |
| 2026-05-04 14:33 | 42.35870 | -71.01463 | 28 ft | 12 kts | 281° |
| 2026-05-04 14:34 | 42.35887 | -71.01576 | 29 ft | 12 kts | 280° |
| 2026-05-04 14:34 | 42.35950 | -71.01616 | 29 ft | 10 kts | 20° |
| 2026-05-04 14:34 | 42.36021 | -71.01607 | 27 ft | 9 kts | 325° |
| 2026-05-04 14:34 | 42.36042 | -71.01687 | 29 ft | 9 kts | 289° |
| 2026-05-04 14:35 | 42.36049 | -71.01711 | 28 ft | 0 kts | 289° |